Impacts TAF Board INFO
FOR SITUATIONAL AWARENESS. NOT TO BE USED FOR FLIGHT PLANNING PURPOSES.
IDs:

KDFW - Dallas-Ft Worth Intl, TX, US

Issued at 2341 UTC 23 Aug 2017
Updated at 0117 UTC 24 Aug 2017
Potential Impact None Slight Moderate High
Time0053Z 24/02Z 24/03Z 24/04Z 24/05Z 24/06Z 24/07Z 24/08Z 24/09Z 24/10Z 24/11Z 24/12Z 24/13Z 24/14Z>>
Type OBS PRVL PRVL PRVL PRVL PRVL PRVL PRVL PRVL PRVL PRVL PRVL PRVL PRVL
VIS 10 >6 >6 >6 >6 >6 >6 >6 >6 >6 >6 >6 >6 >6
CIG 70 120 120 120 120 100 100 100 100 100 100 20 20 20
Cover BKN BKN BKN BKN BKN BKN BKN BKN BKN BKN BKN BKN BKN BKN
FltCat VFR VFR VFR VFR VFR VFR VFR VFR VFR VFR VFR MVFR MVFR MVFR
WX -- -- -- -- -- VCSH VCSH VCSH VCSH VCSH VCSH -- -- --
WDir 70 50 50 50 50 70 70 70 70 70 70 80 80 80
WSpd 9 7 7 7 7 5 5 5 5 5 5 6 6 6
WGst -- -- -- -- -- -- -- -- -- -- -- -- -- --

Raw TAF
KDFW 232341Z 2400/2506 05007KT P6SM SCT060 BKN120
  FM240600 07005KT P6SM VCSH SCT060 BKN100
  FM241200 08006KT P6SM BKN020
  FM241800 08009KT P6SM VCSH BKN060
  FM250000 09009KT P6SM BKN100


Raw METAR
KDFW 240053Z 07009KT 10SM FEW050 BKN070 BKN250 29/21 A2991 RMK AO2 SLP120 TCU DSNT N E S T02940206
KDFW 232353Z 05007KT 10SM FEW044 FEW070 SCT250 31/21 A2990 RMK AO2 SLP114 TCU DSNT SE S NW T03060206 10328 20300 56012
KDFW 232253Z 03007KT 10SM FEW040 SCT070 BKN130 BKN250 32/21 A2990 RMK AO2 SLP115 CB DSNT N E W MOV S TCU DSNT E NW-NE T03170211

METAR Board
Radar Display
Forecast Discussion

FOR SITUATIONAL AWARENESS. NOT TO BE USED FOR FLIGHT PLANNING PURPOSES.